Archival Weather

Los Angeles Intl

Los Angeles, California (KLAX)

Report from: Thursday, September 21, 2023 10:59 AM PDT
Current time: Saturday, March 2, 2024 1:45 AM PST

Current weather – Weather history – Daily summaries
Weather forecast

Temperature20.6°C (69.1°F)
Dew point15.6°C (60.1°F)
Winds 5 kts (2.6 m/s, 5.8 mph) Vrb
Winds variableWinds variable
Visibility10 mi. (16.1 km)
Clouds Scattered clouds 2,900 ft. (884 m)
Ceiling: Broken clouds 4,900 ft. (1,494 m)
Altimeter29.95 in.Hg (1014 mB)
Relative humidity73 %
Density altitude866 ft. (264 m)
Remarks Automated weather observing station with precipitation discriminator
Flight conditions Visual Meteorological Conditions
Raw dataKLAX 211759Z VRB05KT 10SM SCT029 BKN049 21/16 A2995 RMK AO2 T02060156
An error has occurred. This application may no longer respond until reloaded. Reload 🗙